sensor_id;sensor_type;location;lat;lon;timestamp;P1;durP1;ratioP1;P2;durP2;ratioP2
38037;SDS011;23843;51.320;12.340;2024-02-14T00:01:26;0.53;;;0.27;;
38037;SDS011;23843;51.320;12.340;2024-02-14T00:03:51;1.20;;;0.30;;
38037;SDS011;23843;51.320;12.340;2024-02-14T00:06:17;0.50;;;0.50;;
38037;SDS011;23843;51.320;12.340;2024-02-14T00:08:43;0.40;;;0.30;;
38037;SDS011;23843;51.320;12.340;2024-02-14T00:11:08;0.60;;;0.50;;
38037;SDS011;23843;51.320;12.340;2024-02-14T00:13:34;0.77;;;0.67;;
38037;SDS011;23843;51.320;12.340;2024-02-14T00:16:00;0.63;;;0.50;;
38037;SDS011;23843;51.320;12.340;2024-02-14T00:18:27;0.43;;;0.40;;
38037;SDS011;23843;51.320;12.340;2024-02-14T00:20:52;0.40;;;0.40;;
38037;SDS011;23843;51.320;12.340;2024-02-14T00:23:18;0.60;;;0.53;;
38037;SDS011;23843;51.320;12.340;2024-02-14T00:25:43;1.60;;;1.17;;
38037;SDS011;23843;51.320;12.340;2024-02-14T00:28:08;1.20;;;1.00;;
38037;SDS011;23843;51.320;12.340;2024-02-14T00:30:34;1.20;;;0.90;;
38037;SDS011;23843;51.320;12.340;2024-02-14T00:32:59;1.23;;;0.80;;
38037;SDS011;23843;51.320;12.340;2024-02-14T00:35:26;0.57;;;0.50;;
38037;SDS011;23843;51.320;12.340;2024-02-14T00:37:52;0.60;;;0.50;;
38037;SDS011;23843;51.320;12.340;2024-02-14T00:40:17;0.40;;;0.33;;
38037;SDS011;23843;51.320;12.340;2024-02-14T00:42:42;1.30;;;0.80;;
38037;SDS011;23843;51.320;12.340;2024-02-14T00:45:08;1.13;;;0.60;;
38037;SDS011;23843;51.320;12.340;2024-02-14T00:47:34;0.93;;;0.60;;
38037;SDS011;23843;51.320;12.340;2024-02-14T00:50:00;0.37;;;0.37;;
38037;SDS011;23843;51.320;12.340;2024-02-14T00:52:27;0.30;;;0.30;;
38037;SDS011;23843;51.320;12.340;2024-02-14T00:54:52;0.60;;;0.50;;
38037;SDS011;23843;51.320;12.340;2024-02-14T00:57:18;0.43;;;0.40;;
38037;SDS011;23843;51.320;12.340;2024-02-14T00:59:43;0.70;;;0.40;;
38037;SDS011;23843;51.320;12.340;2024-02-14T01:02:09;0.20;;;0.20;;
38037;SDS011;23843;51.320;12.340;2024-02-14T01:04:34;0.40;;;0.40;;
38037;SDS011;23843;51.320;12.340;2024-02-14T01:07:00;1.33;;;0.50;;
38037;SDS011;23843;51.320;12.340;2024-02-14T01:09:26;0.60;;;0.40;;
38037;SDS011;23843;51.320;12.340;2024-02-14T01:11:52;0.50;;;0.50;;
38037;SDS011;23843;51.320;12.340;2024-02-14T01:14:17;0.40;;;0.40;;
38037;SDS011;23843;51.320;12.340;2024-02-14T01:16:43;0.70;;;0.40;;
38037;SDS011;23843;51.320;12.340;2024-02-14T01:19:08;1.10;;;0.60;;
38037;SDS011;23843;51.320;12.340;2024-02-14T01:21:34;0.40;;;0.40;;
38037;SDS011;23843;51.320;12.340;2024-02-14T01:23:59;1.00;;;0.60;;
38037;SDS011;23843;51.320;12.340;2024-02-14T01:26:26;1.60;;;0.80;;
38037;SDS011;23843;51.320;12.340;2024-02-14T01:28:52;2.13;;;1.10;;
38037;SDS011;23843;51.320;12.340;2024-02-14T01:31:17;2.20;;;1.10;;
38037;SDS011;23843;51.320;12.340;2024-02-14T01:33:43;1.87;;;0.90;;
38037;SDS011;23843;51.320;12.340;2024-02-14T01:36:09;0.90;;;0.60;;
38037;SDS011;23843;51.320;12.340;2024-02-14T01:38:34;1.17;;;0.60;;
38037;SDS011;23843;51.320;12.340;2024-02-14T01:41:00;0.70;;;0.70;;
38037;SDS011;23843;51.320;12.340;2024-02-14T01:43:26;0.40;;;0.40;;
38037;SDS011;23843;51.320;12.340;2024-02-14T01:45:52;0.67;;;0.43;;
38037;SDS011;23843;51.320;12.340;2024-02-14T01:48:17;0.30;;;0.30;;
38037;SDS011;23843;51.320;12.340;2024-02-14T01:50:43;0.47;;;0.30;;
38037;SDS011;23843;51.320;12.340;2024-02-14T01:53:09;0.50;;;0.40;;
38037;SDS011;23843;51.320;12.340;2024-02-14T01:55:34;0.20;;;0.20;;
38037;SDS011;23843;51.320;12.340;2024-02-14T01:58:00;0.40;;;0.40;;
38037;SDS011;23843;51.320;12.340;2024-02-14T02:00:27;0.50;;;0.50;;
38037;SDS011;23843;51.320;12.340;2024-02-14T02:02:53;0.30;;;0.30;;
38037;SDS011;23843;51.320;12.340;2024-02-14T02:05:18;0.30;;;0.30;;
38037;SDS011;23843;51.320;12.340;2024-02-14T02:07:44;0.40;;;0.40;;
38037;SDS011;23843;51.320;12.340;2024-02-14T02:10:10;0.40;;;0.40;;
38037;SDS011;23843;51.320;12.340;2024-02-14T02:12:35;0.80;;;0.53;;
38037;SDS011;23843;51.320;12.340;2024-02-14T02:15:01;0.77;;;0.67;;
38037;SDS011;23843;51.320;12.340;2024-02-14T02:17:28;0.60;;;0.53;;
38037;SDS011;23843;51.320;12.340;2024-02-14T02:19:53;0.87;;;0.60;;
38037;SDS011;23843;51.320;12.340;2024-02-14T02:22:19;1.00;;;0.70;;
38037;SDS011;23843;51.320;12.340;2024-02-14T02:24:46;0.67;;;0.63;;
38037;SDS011;23843;51.320;12.340;2024-02-14T02:27:11;0.57;;;0.40;;
38037;SDS011;23843;51.320;12.340;2024-02-14T02:29:36;0.40;;;0.40;;
38037;SDS011;23843;51.320;12.340;2024-02-14T02:32:02;1.00;;;0.70;;
38037;SDS011;23843;51.320;12.340;2024-02-14T02:34:28;0.30;;;0.30;;
38037;SDS011;23843;51.320;12.340;2024-02-14T02:36:54;0.60;;;0.57;;
38037;SDS011;23843;51.320;12.340;2024-02-14T02:39:19;1.00;;;0.47;;
38037;SDS011;23843;51.320;12.340;2024-02-14T02:41:46;0.30;;;0.30;;
38037;SDS011;23843;51.320;12.340;2024-02-14T02:44:11;0.63;;;0.30;;
38037;SDS011;23843;51.320;12.340;2024-02-14T02:46:37;0.40;;;0.37;;
38037;SDS011;23843;51.320;12.340;2024-02-14T02:49:02;0.27;;;0.20;;
38037;SDS011;23843;51.320;12.340;2024-02-14T02:51:28;0.80;;;0.80;;
38037;SDS011;23843;51.320;12.340;2024-02-14T02:53:53;0.90;;;0.80;;
38037;SDS011;23843;51.320;12.340;2024-02-14T02:56:19;0.40;;;0.40;;
38037;SDS011;23843;51.320;12.340;2024-02-14T02:58:46;0.30;;;0.20;;
38037;SDS011;23843;51.320;12.340;2024-02-14T03:01:11;0.30;;;0.30;;
38037;SDS011;23843;51.320;12.340;2024-02-14T03:03:38;1.57;;;0.30;;
38037;SDS011;23843;51.320;12.340;2024-02-14T03:06:04;0.30;;;0.30;;
38037;SDS011;23843;51.320;12.340;2024-02-14T03:08:30;0.47;;;0.30;;
38037;SDS011;23843;51.320;12.340;2024-02-14T03:10:55;1.87;;;0.60;;
38037;SDS011;23843;51.320;12.340;2024-02-14T03:13:21;0.80;;;0.60;;
38037;SDS011;23843;51.320;12.340;2024-02-14T03:15:48;0.33;;;0.30;;
38037;SDS011;23843;51.320;12.340;2024-02-14T03:18:13;0.30;;;0.30;;
38037;SDS011;23843;51.320;12.340;2024-02-14T03:20:39;0.40;;;0.30;;
38037;SDS011;23843;51.320;12.340;2024-02-14T03:23:04;0.20;;;0.20;;
38037;SDS011;23843;51.320;12.340;2024-02-14T03:25:29;0.20;;;0.20;;
38037;SDS011;23843;51.320;12.340;2024-02-14T03:27:55;0.23;;;0.20;;
38037;SDS011;23843;51.320;12.340;2024-02-14T03:30:20;0.83;;;0.30;;
38037;SDS011;23843;51.320;12.340;2024-02-14T03:32:47;0.23;;;0.23;;
38037;SDS011;23843;51.320;12.340;2024-02-14T03:35:13;0.30;;;0.30;;
38037;SDS011;23843;51.320;12.340;2024-02-14T03:37:38;1.20;;;0.50;;
38037;SDS011;23843;51.320;12.340;2024-02-14T03:40:04;0.70;;;0.40;;
38037;SDS011;23843;51.320;12.340;2024-02-14T03:42:30;0.30;;;0.30;;
38037;SDS011;23843;51.320;12.340;2024-02-14T03:44:55;1.47;;;0.63;;
38037;SDS011;23843;51.320;12.340;2024-02-14T03:47:21;1.13;;;0.37;;
38037;SDS011;23843;51.320;12.340;2024-02-14T03:49:49;0.40;;;0.20;;
38037;SDS011;23843;51.320;12.340;2024-02-14T03:52:15;0.20;;;0.20;;
38037;SDS011;23843;51.320;12.340;2024-02-14T03:54:40;0.70;;;0.40;;
38037;SDS011;23843;51.320;12.340;2024-02-14T03:57:06;0.40;;;0.30;;
38037;SDS011;23843;51.320;12.340;2024-02-14T03:59:31;0.20;;;0.20;;
38037;SDS011;23843;51.320;12.340;2024-02-14T04:01:56;0.20;;;0.20;;
38037;SDS011;23843;51.320;12.340;2024-02-14T04:04:22;0.20;;;0.20;;
38037;SDS011;23843;51.320;12.340;2024-02-14T04:06:49;0.43;;;0.10;;
38037;SDS011;23843;51.320;12.340;2024-02-14T04:09:14;0.10;;;0.10;;
38037;SDS011;23843;51.320;12.340;2024-02-14T04:11:39;0.30;;;0.20;;
38037;SDS011;23843;51.320;12.340;2024-02-14T04:14:05;0.30;;;0.30;;
38037;SDS011;23843;51.320;12.340;2024-02-14T04:16:30;0.40;;;0.40;;
38037;SDS011;23843;51.320;12.340;2024-02-14T04:18:56;0.10;;;0.10;;
38037;SDS011;23843;51.320;12.340;2024-02-14T04:21:21;0.30;;;0.30;;
38037;SDS011;23843;51.320;12.340;2024-02-14T04:23:48;0.50;;;0.50;;
38037;SDS011;23843;51.320;12.340;2024-02-14T04:26:18;0.50;;;0.40;;
38037;SDS011;23843;51.320;12.340;2024-02-14T04:28:44;0.37;;;0.20;;
38037;SDS011;23843;51.320;12.340;2024-02-14T04:31:09;0.70;;;0.40;;
38037;SDS011;23843;51.320;12.340;2024-02-14T04:33:35;1.30;;;0.50;;
38037;SDS011;23843;51.320;12.340;2024-02-14T04:36:00;1.73;;;0.70;;
38037;SDS011;23843;51.320;12.340;2024-02-14T04:38:26;0.63;;;0.63;;
38037;SDS011;23843;51.320;12.340;2024-02-14T04:40:53;1.43;;;0.73;;
38037;SDS011;23843;51.320;12.340;2024-02-14T04:43:18;3.33;;;0.93;;
38037;SDS011;23843;51.320;12.340;2024-02-14T04:45:43;0.80;;;0.60;;
38037;SDS011;23843;51.320;12.340;2024-02-14T04:48:09;1.13;;;0.70;;
38037;SDS011;23843;51.320;12.340;2024-02-14T04:50:34;0.40;;;0.40;;
38037;SDS011;23843;51.320;12.340;2024-02-14T04:53:00;1.37;;;0.70;;
38037;SDS011;23843;51.320;12.340;2024-02-14T04:55:25;1.07;;;0.70;;
38037;SDS011;23843;51.320;12.340;2024-02-14T04:57:52;0.40;;;0.40;;
38037;SDS011;23843;51.320;12.340;2024-02-14T05:00:18;0.73;;;0.60;;
38037;SDS011;23843;51.320;12.340;2024-02-14T05:02:44;0.97;;;0.70;;
38037;SDS011;23843;51.320;12.340;2024-02-14T05:05:09;1.27;;;0.77;;
38037;SDS011;23843;51.320;12.340;2024-02-14T05:07:34;1.50;;;0.80;;
38037;SDS011;23843;51.320;12.340;2024-02-14T05:10:00;0.70;;;0.60;;
38037;SDS011;23843;51.320;12.340;2024-02-14T05:12:25;1.30;;;0.60;;
38037;SDS011;23843;51.320;12.340;2024-02-14T05:14:52;1.00;;;0.90;;
38037;SDS011;23843;51.320;12.340;2024-02-14T05:17:17;0.87;;;0.70;;
38037;SDS011;23843;51.320;12.340;2024-02-14T05:19:43;1.10;;;0.70;;
38037;SDS011;23843;51.320;12.340;2024-02-14T05:22:09;1.60;;;0.97;;
38037;SDS011;23843;51.320;12.340;2024-02-14T05:24:34;0.80;;;0.80;;
38037;SDS011;23843;51.320;12.340;2024-02-14T05:27:00;0.87;;;0.67;;
38037;SDS011;23843;51.320;12.340;2024-02-14T05:29:25;1.63;;;0.70;;
38037;SDS011;23843;51.320;12.340;2024-02-14T05:31:52;0.77;;;0.57;;
38037;SDS011;23843;51.320;12.340;2024-02-14T05:34:18;1.20;;;0.60;;
38037;SDS011;23843;51.320;12.340;2024-02-14T05:36:43;1.13;;;0.83;;
38037;SDS011;23843;51.320;12.340;2024-02-14T05:39:08;1.70;;;0.73;;
38037;SDS011;23843;51.320;12.340;2024-02-14T05:41:34;1.10;;;0.70;;
38037;SDS011;23843;51.320;12.340;2024-02-14T05:43:59;2.03;;;1.20;;
38037;SDS011;23843;51.320;12.340;2024-02-14T05:46:25;0.70;;;0.60;;
38037;SDS011;23843;51.320;12.340;2024-02-14T05:48:52;2.60;;;0.77;;
38037;SDS011;23843;51.320;12.340;2024-02-14T05:51:17;2.07;;;0.63;;
38037;SDS011;23843;51.320;12.340;2024-02-14T05:53:43;0.80;;;0.60;;
38037;SDS011;23843;51.320;12.340;2024-02-14T05:56:08;1.17;;;0.80;;
38037;SDS011;23843;51.320;12.340;2024-02-14T05:58:34;1.60;;;0.60;;
38037;SDS011;23843;51.320;12.340;2024-02-14T06:00:59;0.90;;;0.70;;
38037;SDS011;23843;51.320;12.340;2024-02-14T06:03:25;1.03;;;0.63;;
38037;SDS011;23843;51.320;12.340;2024-02-14T06:05:52;0.90;;;0.67;;
38037;SDS011;23843;51.320;12.340;2024-02-14T06:08:17;1.40;;;0.70;;
38037;SDS011;23843;51.320;12.340;2024-02-14T06:10:42;0.93;;;0.63;;
38037;SDS011;23843;51.320;12.340;2024-02-14T06:13:08;0.60;;;0.50;;
38037;SDS011;23843;51.320;12.340;2024-02-14T06:15:33;1.17;;;0.60;;
38037;SDS011;23843;51.320;12.340;2024-02-14T06:17:59;0.87;;;0.60;;
38037;SDS011;23843;51.320;12.340;2024-02-14T06:20:24;1.00;;;0.40;;
38037;SDS011;23843;51.320;12.340;2024-02-14T06:22:51;0.90;;;0.60;;
38037;SDS011;23843;51.320;12.340;2024-02-14T06:25:16;0.60;;;0.60;;
38037;SDS011;23843;51.320;12.340;2024-02-14T06:27:42;1.20;;;0.80;;
38037;SDS011;23843;51.320;12.340;2024-02-14T06:30:08;0.53;;;0.50;;
38037;SDS011;23843;51.320;12.340;2024-02-14T06:32:33;1.53;;;0.60;;
38037;SDS011;23843;51.320;12.340;2024-02-14T06:34:59;0.73;;;0.70;;
38037;SDS011;23843;51.320;12.340;2024-02-14T06:37:24;0.80;;;0.63;;
38037;SDS011;23843;51.320;12.340;2024-02-14T06:39:51;0.90;;;0.70;;
38037;SDS011;23843;51.320;12.340;2024-02-14T06:42:17;0.50;;;0.43;;
38037;SDS011;23843;51.320;12.340;2024-02-14T06:44:42;0.60;;;0.50;;
38037;SDS011;23843;51.320;12.340;2024-02-14T06:47:08;0.80;;;0.40;;
38037;SDS011;23843;51.320;12.340;2024-02-14T06:49:33;0.53;;;0.43;;
38037;SDS011;23843;51.320;12.340;2024-02-14T06:51:59;1.30;;;0.60;;
38037;SDS011;23843;51.320;12.340;2024-02-14T06:54:25;0.60;;;0.60;;
38037;SDS011;23843;51.320;12.340;2024-02-14T06:56:51;0.87;;;0.73;;
38037;SDS011;23843;51.320;12.340;2024-02-14T06:59:17;1.03;;;0.70;;
38037;SDS011;23843;51.320;12.340;2024-02-14T07:01:42;1.10;;;0.87;;
38037;SDS011;23843;51.320;12.340;2024-02-14T07:04:08;1.00;;;0.57;;
38037;SDS011;23843;51.320;12.340;2024-02-14T07:06:33;0.70;;;0.50;;
38037;SDS011;23843;51.320;12.340;2024-02-14T07:08:59;0.70;;;0.50;;
38037;SDS011;23843;51.320;12.340;2024-02-14T07:11:24;0.73;;;0.53;;
38037;SDS011;23843;51.320;12.340;2024-02-14T07:13:51;1.20;;;0.70;;
38037;SDS011;23843;51.320;12.340;2024-02-14T07:16:16;1.17;;;0.80;;
38037;SDS011;23843;51.320;12.340;2024-02-14T07:18:42;1.63;;;0.87;;
38037;SDS011;23843;51.320;12.340;2024-02-14T07:21:07;0.90;;;0.60;;
38037;SDS011;23843;51.320;12.340;2024-02-14T07:23:33;0.87;;;0.60;;
38037;SDS011;23843;51.320;12.340;2024-02-14T07:25:58;0.80;;;0.80;;
38037;SDS011;23843;51.320;12.340;2024-02-14T07:28:24;1.03;;;0.67;;
38037;SDS011;23843;51.320;12.340;2024-02-14T07:30:50;1.10;;;0.80;;
38037;SDS011;23843;51.320;12.340;2024-02-14T07:33:16;0.80;;;0.60;;
38037;SDS011;23843;51.320;12.340;2024-02-14T07:35:42;1.10;;;0.70;;
38037;SDS011;23843;51.320;12.340;2024-02-14T07:38:08;1.03;;;0.73;;
38037;SDS011;23843;51.320;12.340;2024-02-14T07:40:33;1.17;;;0.87;;
38037;SDS011;23843;51.320;12.340;2024-02-14T07:42:59;1.60;;;0.90;;
38037;SDS011;23843;51.320;12.340;2024-02-14T07:45:24;1.87;;;0.97;;
38037;SDS011;23843;51.320;12.340;2024-02-14T07:47:51;1.33;;;0.60;;
38037;SDS011;23843;51.320;12.340;2024-02-14T07:50:17;1.33;;;0.53;;
38037;SDS011;23843;51.320;12.340;2024-02-14T07:52:43;0.90;;;0.70;;
38037;SDS011;23843;51.320;12.340;2024-02-14T07:55:08;1.10;;;0.70;;
38037;SDS011;23843;51.320;12.340;2024-02-14T07:57:34;1.50;;;0.90;;
38037;SDS011;23843;51.320;12.340;2024-02-14T07:59:59;1.17;;;0.93;;
38037;SDS011;23843;51.320;12.340;2024-02-14T08:02:25;2.20;;;0.60;;
38037;SDS011;23843;51.320;12.340;2024-02-14T08:04:52;1.57;;;0.50;;
38037;SDS011;23843;51.320;12.340;2024-02-14T08:07:17;0.50;;;0.40;;
38037;SDS011;23843;51.320;12.340;2024-02-14T08:09:42;1.00;;;0.57;;
38037;SDS011;23843;51.320;12.340;2024-02-14T08:12:08;0.40;;;0.40;;
38037;SDS011;23843;51.320;12.340;2024-02-14T08:14:34;0.30;;;0.30;;
38037;SDS011;23843;51.320;12.340;2024-02-14T08:16:59;1.20;;;0.73;;
38037;SDS011;23843;51.320;12.340;2024-02-14T08:19:25;0.60;;;0.50;;
38037;SDS011;23843;51.320;12.340;2024-02-14T08:21:52;0.80;;;0.40;;
38037;SDS011;23843;51.320;12.340;2024-02-14T08:24:17;0.30;;;0.30;;
38037;SDS011;23843;51.320;12.340;2024-02-14T08:26:43;0.83;;;0.30;;
38037;SDS011;23843;51.320;12.340;2024-02-14T08:29:08;0.50;;;0.50;;
38037;SDS011;23843;51.320;12.340;2024-02-14T08:31:34;1.70;;;0.50;;
38037;SDS011;23843;51.320;12.340;2024-02-14T08:33:59;0.57;;;0.40;;
38037;SDS011;23843;51.320;12.340;2024-02-14T08:36:25;0.73;;;0.33;;
38037;SDS011;23843;51.320;12.340;2024-02-14T08:38:51;0.30;;;0.30;;
38037;SDS011;23843;51.320;12.340;2024-02-14T08:41:17;0.63;;;0.40;;
38037;SDS011;23843;51.320;12.340;2024-02-14T08:43:43;0.40;;;0.40;;
38037;SDS011;23843;51.320;12.340;2024-02-14T08:46:09;0.53;;;0.30;;
38037;SDS011;23843;51.320;12.340;2024-02-14T08:48:35;0.30;;;0.30;;
38037;SDS011;23843;51.320;12.340;2024-02-14T08:51:00;0.50;;;0.20;;
38037;SDS011;23843;51.320;12.340;2024-02-14T08:53:26;0.40;;;0.30;;
38037;SDS011;23843;51.320;12.340;2024-02-14T08:55:52;0.50;;;0.40;;
38037;SDS011;23843;51.320;12.340;2024-02-14T08:58:18;0.77;;;0.40;;
38037;SDS011;23843;51.320;12.340;2024-02-14T09:00:43;0.30;;;0.10;;
38037;SDS011;23843;51.320;12.340;2024-02-14T09:03:09;0.40;;;0.30;;
38037;SDS011;23843;51.320;12.340;2024-02-14T09:05:34;0.37;;;0.30;;
38037;SDS011;23843;51.320;12.340;2024-02-14T09:08:00;0.50;;;0.40;;
38037;SDS011;23843;51.320;12.340;2024-02-14T09:10:25;0.40;;;0.40;;
38037;SDS011;23843;51.320;12.340;2024-02-14T09:12:52;1.67;;;0.57;;
38037;SDS011;23843;51.320;12.340;2024-02-14T09:15:18;0.30;;;0.30;;
38037;SDS011;23843;51.320;12.340;2024-02-14T09:17:43;0.80;;;0.80;;
38037;SDS011;23843;51.320;12.340;2024-02-14T09:20:10;0.30;;;0.30;;
38037;SDS011;23843;51.320;12.340;2024-02-14T09:22:36;1.27;;;0.57;;
38037;SDS011;23843;51.320;12.340;2024-02-14T09:25:01;0.63;;;0.60;;
38037;SDS011;23843;51.320;12.340;2024-02-14T09:27:27;0.60;;;0.33;;
38037;SDS011;23843;51.320;12.340;2024-02-14T09:29:54;0.40;;;0.40;;
38037;SDS011;23843;51.320;12.340;2024-02-14T09:32:19;0.20;;;0.20;;
38037;SDS011;23843;51.320;12.340;2024-02-14T09:34:45;0.37;;;0.37;;
38037;SDS011;23843;51.320;12.340;2024-02-14T09:37:10;0.30;;;0.30;;
38037;SDS011;23843;51.320;12.340;2024-02-14T09:39:36;0.50;;;0.50;;
38037;SDS011;23843;51.320;12.340;2024-02-14T09:42:01;0.30;;;0.20;;
38037;SDS011;23843;51.320;12.340;2024-02-14T09:44:33;0.20;;;0.20;;
38037;SDS011;23843;51.320;12.340;2024-02-14T09:47:01;0.50;;;0.30;;
38037;SDS011;23843;51.320;12.340;2024-02-14T09:49:30;0.70;;;0.40;;
38037;SDS011;23843;51.320;12.340;2024-02-14T09:51:56;0.70;;;0.40;;
38037;SDS011;23843;51.320;12.340;2024-02-14T09:54:24;0.63;;;0.40;;
38037;SDS011;23843;51.320;12.340;2024-02-14T09:56:50;0.37;;;0.33;;
38037;SDS011;23843;51.320;12.340;2024-02-14T09:59:17;0.20;;;0.20;;
38037;SDS011;23843;51.320;12.340;2024-02-14T10:01:43;0.30;;;0.27;;
38037;SDS011;23843;51.320;12.340;2024-02-14T10:04:10;0.20;;;0.20;;
38037;SDS011;23843;51.320;12.340;2024-02-14T10:06:35;0.57;;;0.40;;
38037;SDS011;23843;51.320;12.340;2024-02-14T10:09:01;0.70;;;0.50;;
38037;SDS011;23843;51.320;12.340;2024-02-14T10:11:26;0.40;;;0.40;;
38037;SDS011;23843;51.320;12.340;2024-02-14T10:13:51;0.40;;;0.40;;
38037;SDS011;23843;51.320;12.340;2024-02-14T10:16:17;1.00;;;0.90;;
38037;SDS011;23843;51.320;12.340;2024-02-14T10:18:42;0.90;;;0.80;;
38037;SDS011;23843;51.320;12.340;2024-02-14T10:21:13;0.90;;;0.50;;
38037;SDS011;23843;51.320;12.340;2024-02-14T10:23:39;0.50;;;0.40;;
38037;SDS011;23843;51.320;12.340;2024-02-14T10:26:05;0.80;;;0.50;;
38037;SDS011;23843;51.320;12.340;2024-02-14T10:28:30;1.10;;;0.50;;
38037;SDS011;23843;51.320;12.340;2024-02-14T10:31:01;0.83;;;0.40;;
38037;SDS011;23843;51.320;12.340;2024-02-14T10:33:27;0.63;;;0.50;;
38037;SDS011;23843;51.320;12.340;2024-02-14T10:35:52;0.73;;;0.40;;
38037;SDS011;23843;51.320;12.340;2024-02-14T10:38:21;0.40;;;0.40;;
38037;SDS011;23843;51.320;12.340;2024-02-14T10:40:49;0.57;;;0.37;;
38037;SDS011;23843;51.320;12.340;2024-02-14T10:43:16;0.57;;;0.40;;
38037;SDS011;23843;51.320;12.340;2024-02-14T10:45:41;0.83;;;0.50;;
38037;SDS011;23843;51.320;12.340;2024-02-14T10:48:07;0.77;;;0.73;;
38037;SDS011;23843;51.320;12.340;2024-02-14T10:50:36;0.40;;;0.40;;
38037;SDS011;23843;51.320;12.340;2024-02-14T10:53:05;0.43;;;0.23;;
38037;SDS011;23843;51.320;12.340;2024-02-14T10:55:38;0.50;;;0.50;;
38037;SDS011;23843;51.320;12.340;2024-02-14T10:58:05;0.50;;;0.40;;
38037;SDS011;23843;51.320;12.340;2024-02-14T11:00:33;0.40;;;0.40;;
38037;SDS011;23843;51.320;12.340;2024-02-14T11:02:58;0.30;;;0.30;;
38037;SDS011;23843;51.320;12.340;2024-02-14T11:05:24;0.30;;;0.30;;
38037;SDS011;23843;51.320;12.340;2024-02-14T11:07:50;0.27;;;0.20;;
38037;SDS011;23843;51.320;12.340;2024-02-14T11:10:16;0.43;;;0.30;;
38037;SDS011;23843;51.320;12.340;2024-02-14T11:12:45;0.20;;;0.20;;
38037;SDS011;23843;51.320;12.340;2024-02-14T11:15:12;0.50;;;0.40;;
38037;SDS011;23843;51.320;12.340;2024-02-14T11:17:42;0.40;;;0.33;;
38037;SDS011;23843;51.320;12.340;2024-02-14T11:20:12;0.60;;;0.40;;
38037;SDS011;23843;51.320;12.340;2024-02-14T11:22:55;0.30;;;0.30;;
38037;SDS011;23843;51.320;12.340;2024-02-14T11:25:28;1.33;;;0.60;;
38037;SDS011;23843;51.320;12.340;2024-02-14T11:27:55;0.73;;;0.60;;
38037;SDS011;23843;51.320;12.340;2024-02-14T11:30:28;0.40;;;0.40;;
38037;SDS011;23843;51.320;12.340;2024-02-14T11:32:54;0.47;;;0.40;;
38037;SDS011;23843;51.320;12.340;2024-02-14T11:35:20;0.63;;;0.50;;
38037;SDS011;23843;51.320;12.340;2024-02-14T11:37:50;0.50;;;0.30;;
38037;SDS011;23843;51.320;12.340;2024-02-14T11:40:18;0.63;;;0.50;;
38037;SDS011;23843;51.320;12.340;2024-02-14T11:42:44;0.40;;;0.40;;
38037;SDS011;23843;51.320;12.340;2024-02-14T11:45:11;0.77;;;0.40;;
38037;SDS011;23843;51.320;12.340;2024-02-14T11:47:36;0.37;;;0.33;;
38037;SDS011;23843;51.320;12.340;2024-02-14T11:50:02;0.33;;;0.30;;
38037;SDS011;23843;51.320;12.340;2024-02-14T11:52:28;0.57;;;0.30;;
38037;SDS011;23843;51.320;12.340;2024-02-14T11:54:53;0.70;;;0.50;;
38037;SDS011;23843;51.320;12.340;2024-02-14T11:57:19;0.70;;;0.40;;
38037;SDS011;23843;51.320;12.340;2024-02-14T11:59:44;1.30;;;0.77;;
38037;SDS011;23843;51.320;12.340;2024-02-14T12:02:11;0.63;;;0.40;;
38037;SDS011;23843;51.320;12.340;2024-02-14T12:04:37;0.37;;;0.37;;
38037;SDS011;23843;51.320;12.340;2024-02-14T12:07:02;0.40;;;0.30;;
38037;SDS011;23843;51.320;12.340;2024-02-14T12:09:28;0.23;;;0.23;;
38037;SDS011;23843;51.320;12.340;2024-02-14T12:11:54;0.40;;;0.30;;
38037;SDS011;23843;51.320;12.340;2024-02-14T12:14:21;0.50;;;0.20;;
38037;SDS011;23843;51.320;12.340;2024-02-14T12:16:47;0.30;;;0.30;;
38037;SDS011;23843;51.320;12.340;2024-02-14T12:19:15;0.50;;;0.40;;
38037;SDS011;23843;51.320;12.340;2024-02-14T12:21:41;0.40;;;0.30;;
38037;SDS011;23843;51.320;12.340;2024-02-14T12:24:07;0.33;;;0.20;;
38037;SDS011;23843;51.320;12.340;2024-02-14T12:26:33;0.40;;;0.30;;
38037;SDS011;23843;51.320;12.340;2024-02-14T12:29:01;0.63;;;0.30;;
38037;SDS011;23843;51.320;12.340;2024-02-14T12:31:27;0.40;;;0.30;;
38037;SDS011;23843;51.320;12.340;2024-02-14T12:33:52;0.30;;;0.30;;
38037;SDS011;23843;51.320;12.340;2024-02-14T12:36:19;0.27;;;0.27;;
38037;SDS011;23843;51.320;12.340;2024-02-14T12:38:45;0.77;;;0.40;;
38037;SDS011;23843;51.320;12.340;2024-02-14T12:41:10;0.30;;;0.30;;
38037;SDS011;23843;51.320;12.340;2024-02-14T12:43:36;0.40;;;0.40;;
38037;SDS011;23843;51.320;12.340;2024-02-14T12:46:01;0.30;;;0.30;;
38037;SDS011;23843;51.320;12.340;2024-02-14T12:48:26;0.40;;;0.33;;
38037;SDS011;23843;51.320;12.340;2024-02-14T12:50:52;0.30;;;0.30;;
38037;SDS011;23843;51.320;12.340;2024-02-14T12:53:19;0.40;;;0.40;;
38037;SDS011;23843;51.320;12.340;2024-02-14T12:55:46;0.27;;;0.27;;
38037;SDS011;23843;51.320;12.340;2024-02-14T12:58:11;0.20;;;0.20;;
38037;SDS011;23843;51.320;12.340;2024-02-14T13:00:37;0.30;;;0.30;;
38037;SDS011;23843;51.320;12.340;2024-02-14T13:03:03;0.23;;;0.20;;
38037;SDS011;23843;51.320;12.340;2024-02-14T13:05:28;0.67;;;0.40;;
38037;SDS011;23843;51.320;12.340;2024-02-14T13:07:54;0.30;;;0.30;;
38037;SDS011;23843;51.320;12.340;2024-02-14T13:10:21;0.63;;;0.30;;
38037;SDS011;23843;51.320;12.340;2024-02-14T13:12:46;0.30;;;0.30;;
38037;SDS011;23843;51.320;12.340;2024-02-14T13:15:12;0.40;;;0.30;;
38037;SDS011;23843;51.320;12.340;2024-02-14T13:17:37;0.60;;;0.40;;
38037;SDS011;23843;51.320;12.340;2024-02-14T13:20:03;0.77;;;0.40;;
38037;SDS011;23843;51.320;12.340;2024-02-14T13:22:29;0.70;;;0.53;;
38037;SDS011;23843;51.320;12.340;2024-02-14T13:24:54;0.67;;;0.47;;
38037;SDS011;23843;51.320;12.340;2024-02-14T13:27:21;0.77;;;0.40;;
38037;SDS011;23843;51.320;12.340;2024-02-14T13:29:47;0.63;;;0.50;;
38037;SDS011;23843;51.320;12.340;2024-02-14T13:32:12;0.70;;;0.43;;
38037;SDS011;23843;51.320;12.340;2024-02-14T13:34:38;0.70;;;0.40;;
38037;SDS011;23843;51.320;12.340;2024-02-14T13:37:03;0.60;;;0.30;;
38037;SDS011;23843;51.320;12.340;2024-02-14T13:39:29;0.47;;;0.40;;
38037;SDS011;23843;51.320;12.340;2024-02-14T13:41:55;0.73;;;0.40;;
38037;SDS011;23843;51.320;12.340;2024-02-14T13:44:22;0.43;;;0.43;;
38037;SDS011;23843;51.320;12.340;2024-02-14T13:46:47;0.63;;;0.50;;
38037;SDS011;23843;51.320;12.340;2024-02-14T13:49:13;1.03;;;0.40;;
38037;SDS011;23843;51.320;12.340;2024-02-14T13:51:38;0.30;;;0.30;;
38037;SDS011;23843;51.320;12.340;2024-02-14T13:54:04;0.60;;;0.40;;
38037;SDS011;23843;51.320;12.340;2024-02-14T13:56:29;2.67;;;0.50;;
38037;SDS011;23843;51.320;12.340;2024-02-14T13:58:55;0.50;;;0.40;;
38037;SDS011;23843;51.320;12.340;2024-02-14T14:01:22;1.37;;;0.50;;
38037;SDS011;23843;51.320;12.340;2024-02-14T14:03:47;0.43;;;0.40;;
38037;SDS011;23843;51.320;12.340;2024-02-14T14:06:13;0.97;;;0.60;;
38037;SDS011;23843;51.320;12.340;2024-02-14T14:08:38;1.00;;;0.70;;
38037;SDS011;23843;51.320;12.340;2024-02-14T14:11:04;0.60;;;0.43;;
38037;SDS011;23843;51.320;12.340;2024-02-14T14:13:30;0.40;;;0.40;;
38037;SDS011;23843;51.320;12.340;2024-02-14T14:15:56;0.53;;;0.40;;
38037;SDS011;23843;51.320;12.340;2024-02-14T14:18:23;0.27;;;0.27;;
38037;SDS011;23843;51.320;12.340;2024-02-14T14:20:49;0.40;;;0.40;;
38037;SDS011;23843;51.320;12.340;2024-02-14T14:23:14;0.37;;;0.37;;
38037;SDS011;23843;51.320;12.340;2024-02-14T14:25:43;0.60;;;0.43;;